Time;durP1;ratioP1;P1;durP2;ratioP2;P2;SDS_P1;SDS_P2;PMS_P1;PMS_P2;Temp;Humidity;BMP_temperature;BMP_pressure;BME280_temperature;BME280_humidity;BME280_pressure;Samples;Min_cycle;Max_cycle;Signal;HPM_P1;HPM_P2
2023/06/03 00:01:47;;;;;;;1.87;1.07;;;10.40;49.90;;;;;;5113556;28;20447;-60
2023/06/03 00:04:14;;;;;;;2.23;1.30;;;10.30;50.00;;;;;;5113881;28;20426;-61
2023/06/03 00:06:41;;;;;;;1.80;1.20;;;10.30;50.20;;;;;;5114607;28;20769;-61
2023/06/03 00:09:09;;;;;;;1.30;1.20;;;10.20;50.20;;;;;;5113885;28;20552;-61
2023/06/03 00:11:37;;;;;;;1.25;1.10;;;10.20;50.40;;;;;;5113402;28;20985;-60
2023/06/03 00:14:04;;;;;;;1.30;1.20;;;10.20;50.60;;;;;;5113686;28;20206;-61
2023/06/03 00:16:32;;;;;;;3.45;1.40;;;10.10;50.80;;;;;;5113542;28;20477;-62
2023/06/03 00:19:00;;;;;;;3.05;1.20;;;10.10;50.90;;;;;;5113956;28;20244;-61
2023/06/03 00:21:28;;;;;;;1.88;1.13;;;10.00;51.20;;;;;;5114097;28;20204;-62
2023/06/03 00:23:55;;;;;;;1.70;1.30;;;9.90;52.20;;;;;;5113631;28;20245;-62
2023/06/03 00:26:23;;;;;;;2.75;1.40;;;9.90;52.60;;;;;;5113566;28;20707;-62
2023/06/03 00:28:49;;;;;;;1.35;1.10;;;9.80;52.80;;;;;;5117750;28;20256;-61
2023/06/03 00:31:16;;;;;;;3.50;1.88;;;9.70;53.00;;;;;;5117772;28;20614;-61
2023/06/03 00:33:43;;;;;;;4.10;1.45;;;9.70;53.30;;;;;;5117330;28;20242;-60
2023/06/03 00:36:11;;;;;;;2.60;1.33;;;9.60;53.30;;;;;;5117636;28;20230;-61
2023/06/03 00:38:38;;;;;;;1.30;1.20;;;9.60;53.60;;;;;;5117605;28;20598;-61
2023/06/03 00:41:05;;;;;;;1.70;1.58;;;9.50;53.70;;;;;;5117478;28;20226;-62
2023/06/03 00:43:32;;;;;;;1.50;1.30;;;9.40;53.90;;;;;;5117616;28;20195;-60
2023/06/03 00:45:59;;;;;;;2.08;1.23;;;9.40;54.20;;;;;;5117704;28;20203;-60
2023/06/03 00:48:25;;;;;;;6.45;1.90;;;9.40;54.30;;;;;;5117497;28;20576;-61
2023/06/03 00:50:52;;;;;;;1.85;1.60;;;9.40;54.30;;;;;;5117073;28;20223;-61
2023/06/03 00:53:21;;;;;;;2.10;1.73;;;9.30;54.30;;;;;;5117192;28;20206;-61
2023/06/03 00:55:48;;;;;;;1.55;1.23;;;9.30;54.50;;;;;;5116929;28;20210;-61
2023/06/03 00:58:15;;;;;;;1.90;1.40;;;9.30;54.70;;;;;;5116860;28;20223;-60
2023/06/03 01:00:42;;;;;;;2.00;1.20;;;9.30;54.80;;;;;;5116847;28;20215;-61
2023/06/03 01:03:14;;;;;;;1.60;1.35;;;9.20;54.90;;;;;;5117119;28;20546;-60
2023/06/03 01:05:41;;;;;;;1.63;1.10;;;9.20;55.10;;;;;;5117732;28;20212;-60
2023/06/03 01:08:22;;;;;;;2.85;1.42;;;9.10;55.20;;;;;;5117185;28;20192;-61
2023/06/03 01:10:59;;;;;;;2.33;2.13;;;9.20;55.50;;;;;;5117146;28;20319;-60
2023/06/03 01:13:31;;;;;;;2.30;1.35;;;9.10;55.50;;;;;;5117132;28;20183;-60
2023/06/03 01:16:04;;;;;;;1.90;1.10;;;9.10;55.50;;;;;;5116916;28;20179;-60
2023/06/03 01:18:32;;;;;;;1.73;1.10;;;9.10;55.60;;;;;;5116560;28;20188;-59
2023/06/03 01:21:00;;;;;;;1.88;1.10;;;9.10;55.70;;;;;;5116759;28;20239;-60
2023/06/03 01:23:33;;;;;;;1.45;1.23;;;9.10;55.70;;;;;;5117611;28;20200;-59
2023/06/03 01:26:01;;;;;;;1.80;1.33;;;9.00;55.80;;;;;;5123563;28;20266;-60
2023/06/03 01:28:29;;;;;;;1.75;1.30;;;9.00;56.50;;;;;;5116684;28;20689;-60
2023/06/03 01:30:57;;;;;;;2.90;1.50;;;8.90;56.00;;;;;;5117151;28;20311;-60
2023/06/03 01:33:26;;;;;;;1.88;1.25;;;8.90;56.20;;;;;;5116825;28;20199;-60
2023/06/03 01:35:55;;;;;;;1.50;1.20;;;8.80;56.30;;;;;;5116121;28;20838;-60
2023/06/03 01:38:23;;;;;;;4.80;1.33;;;8.80;56.50;;;;;;5115596;28;20227;-60
2023/06/03 01:40:52;;;;;;;2.50;1.35;;;8.70;56.60;;;;;;5115881;28;20220;-60
2023/06/03 01:43:19;;;;;;;2.13;1.58;;;8.80;56.80;;;;;;5116159;28;20229;-61
2023/06/03 01:45:46;;;;;;;7.57;1.58;;;8.70;56.80;;;;;;5115796;28;20281;-60
2023/06/03 01:48:13;;;;;;;2.25;1.48;;;8.70;57.00;;;;;;5116234;28;20192;-60
2023/06/03 01:50:42;;;;;;;11.90;1.27;;;8.70;57.00;;;;;;5115655;28;20235;-60
2023/06/03 01:53:09;;;;;;;5.07;1.40;;;8.60;57.10;;;;;;5115954;28;20204;-60
2023/06/03 01:55:36;;;;;;;1.50;1.30;;;8.60;57.40;;;;;;5116002;28;20199;-60
2023/06/03 01:58:04;;;;;;;2.42;1.25;;;8.50;57.60;;;;;;5115477;28;20696;-60
2023/06/03 02:00:31;;;;;;;1.83;1.20;;;8.40;57.90;;;;;;5115469;28;20223;-59
2023/06/03 02:02:58;;;;;;;2.80;1.50;;;8.40;58.20;;;;;;5115772;28;20215;-60
2023/06/03 02:05:25;;;;;;;5.40;1.70;;;8.30;58.40;;;;;;5116202;28;20199;-59
2023/06/03 02:07:51;;;;;;;2.95;1.65;;;8.30;58.80;;;;;;5116287;28;20618;-59
2023/06/03 02:10:19;;;;;;;4.38;1.80;;;8.20;59.10;;;;;;5116388;28;20220;-59
2023/06/03 02:12:45;;;;;;;1.27;1.17;;;8.20;59.40;;;;;;5115873;28;20231;-59
2023/06/03 02:15:14;;;;;;;2.83;1.27;;;8.10;59.70;;;;;;5115644;28;20211;-59
2023/06/03 02:17:41;;;;;;;2.60;1.27;;;8.10;60.10;;;;;;5115150;28;20591;-59
2023/06/03 02:20:09;;;;;;;1.50;1.23;;;8.10;60.50;;;;;;5115468;28;20318;-60
2023/06/03 02:22:37;;;;;;;5.90;1.85;;;8.00;60.80;;;;;;5115161;28;20747;-60
2023/06/03 02:25:06;;;;;;;3.47;1.50;;;8.10;61.00;;;;;;5115398;28;20200;-59
2023/06/03 02:27:33;;;;;;;1.92;1.20;;;8.00;61.20;;;;;;5115428;28;20204;-59
2023/06/03 02:30:00;;;;;;;2.97;1.10;;;8.00;61.30;;;;;;5115005;28;20754;-60
2023/06/03 02:32:28;;;;;;;3.75;1.20;;;8.00;61.60;;;;;;5115275;28;20204;-60
2023/06/03 02:34:55;;;;;;;1.00;0.90;;;8.00;61.80;;;;;;5115137;28;20289;-59
2023/06/03 02:37:22;;;;;;;3.15;1.25;;;8.00;62.00;;;;;;5114983;28;20219;-60
2023/06/03 02:39:49;;;;;;;3.35;1.30;;;8.00;62.20;;;;;;5115118;28;20302;-60
2023/06/03 02:42:16;;;;;;;2.90;1.73;;;8.00;62.40;;;;;;5114794;28;20689;-61
2023/06/03 02:44:42;;;;;;;3.45;1.50;;;8.00;62.50;;;;;;5115588;28;20303;-60
2023/06/03 02:47:09;;;;;;;3.72;1.33;;;8.00;62.60;;;;;;5115051;28;20274;-59
2023/06/03 02:49:37;;;;;;;2.85;1.67;;;8.00;62.70;;;;;;5128212;22;20417;-58
2023/06/03 02:52:04;;;;;;;5.05;1.33;;;8.00;62.70;;;;;;5114658;28;20185;-57
2023/06/03 02:54:31;;;;;;;1.48;1.38;;;8.00;62.70;;;;;;5114668;28;20286;-58
2023/06/03 02:56:58;;;;;;;6.45;1.60;;;8.00;62.90;;;;;;5114473;28;20222;-58
2023/06/03 02:59:25;;;;;;;1.92;1.33;;;8.00;63.00;;;;;;5114728;28;20230;-59
2023/06/03 03:01:51;;;;;;;1.80;1.05;;;8.00;63.30;;;;;;5115341;28;20230;-60
2023/06/03 03:04:18;;;;;;;5.38;1.42;;;7.90;63.70;;;;;;5114717;28;20693;-58
2023/06/03 03:06:49;;;;;;;2.10;1.20;;;7.80;64.10;;;;;;5114627;27;20273;-58
2023/06/03 03:09:16;;;;;;;2.75;1.45;;;7.80;64.70;;;;;;5114597;28;20184;-58
2023/06/03 03:11:42;;;;;;;2.42;1.10;;;7.70;64.90;;;;;;5114434;28;20203;-57
2023/06/03 03:14:09;;;;;;;2.45;1.30;;;7.80;65.20;;;;;;5114258;28;20199;-58
2023/06/03 03:16:36;;;;;;;3.65;1.73;;;7.80;65.30;;;;;;5114290;28;20329;-57
2023/06/03 03:19:03;;;;;;;2.80;1.60;;;7.80;65.20;;;;;;5113965;28;20689;-58
2023/06/03 03:21:31;;;;;;;2.50;1.30;;;7.80;65.20;;;;;;5113827;28;20688;-58
2023/06/03 03:23:59;;;;;;;1.73;1.20;;;7.80;65.50;;;;;;5113889;28;20665;-59
2023/06/03 03:26:26;;;;;;;4.22;1.80;;;7.80;65.80;;;;;;5114038;28;20207;-59
2023/06/03 03:28:53;;;;;;;2.70;1.10;;;7.80;66.10;;;;;;5114563;28;20207;-59
2023/06/03 03:31:21;;;;;;;2.30;1.40;;;7.80;66.60;;;;;;5114341;28;20226;-58
2023/06/03 03:33:50;;;;;;;9.30;1.90;;;7.80;67.10;;;;;;5114555;28;20196;-57
2023/06/03 03:36:20;;;;;;;2.00;1.70;;;7.70;67.40;;;;;;5114935;28;20290;-57
2023/06/03 03:38:47;;;;;;;1.42;1.27;;;7.70;67.80;;;;;;5114617;28;20696;-58
2023/06/03 03:41:15;;;;;;;2.60;1.60;;;7.70;68.30;;;;;;5114474;28;20215;-58
2023/06/03 03:43:42;;;;;;;1.70;1.45;;;7.70;68.70;;;;;;5114857;28;20210;-57
2023/06/03 03:46:10;;;;;;;5.88;1.58;;;7.60;69.10;;;;;;5115118;28;20241;-57
2023/06/03 03:48:37;;;;;;;2.58;1.42;;;7.60;69.70;;;;;;5115420;28;20245;-59
2023/06/03 03:51:04;;;;;;;2.25;1.42;;;7.60;70.10;;;;;;5115107;28;20232;-59
2023/06/03 03:53:32;;;;;;;3.53;1.50;;;7.60;70.50;;;;;;5114656;28;20199;-58
2023/06/03 03:55:59;;;;;;;2.30;1.50;;;7.80;71.20;;;;;;5114249;28;20202;-57
2023/06/03 03:58:29;;;;;;;2.58;1.25;;;8.40;70.70;;;;;;5113251;28;20227;-57
2023/06/03 04:00:59;;;;;;;2.08;1.20;;;9.10;68.60;;;;;;5113968;28;20219;-58
2023/06/03 04:03:27;;;;;;;2.03;1.40;;;9.70;65.90;;;;;;5113337;28;20199;-58
2023/06/03 04:05:54;;;;;;;1.80;1.47;;;10.30;62.40;;;;;;5113564;28;20199;-58
2023/06/03 04:11:47;;;;;;;2.63;1.40;;;11.30;58.20;;;;;;5091658;28;20546;-58
2023/06/03 04:14:15;;;;;;;2.63;1.53;;;11.50;57.30;;;;;;5090704;28;20450;-58
2023/06/03 04:16:57;;;;;;;2.40;1.50;;;11.70;56.40;;;;;;5090543;28;20944;-58
2023/06/03 04:19:30;;;;;;;4.37;1.60;;;11.90;55.70;;;;;;5091189;28;20469;-58
2023/06/03 04:21:57;;;;;;;2.67;1.37;;;12.10;55.30;;;;;;5091207;28;20422;-57
2023/06/03 04:24:24;;;;;;;5.13;1.50;;;12.40;54.50;;;;;;5090761;28;20445;-58
2023/06/03 04:26:52;;;;;;;3.30;1.50;;;12.50;53.80;;;;;;5090638;28;20446;-58
2023/06/03 04:29:19;;;;;;;2.60;1.53;;;12.60;53.20;;;;;;5090937;28;20810;-58
2023/06/03 04:31:46;;;;;;;8.23;1.57;;;12.70;52.80;;;;;;5091756;28;20850;-59
2023/06/03 04:34:13;;;;;;;2.60;1.30;;;12.80;52.60;;;;;;5091030;28;20450;-58
2023/06/03 04:36:40;;;;;;;5.00;1.70;;;13.00;52.00;;;;;;5090799;28;20443;-59
2023/06/03 04:39:08;;;;;;;1.40;1.30;;;13.00;51.20;;;;;;5090122;28;20513;-58
2023/06/03 04:41:35;;;;;;;3.83;2.07;;;12.90;51.30;;;;;;5090145;28;20493;-58
2023/06/03 04:44:03;;;;;;;2.10;1.67;;;12.90;51.30;;;;;;5090167;28;20461;-58
2023/06/03 04:46:30;;;;;;;3.07;1.87;;;12.90;51.00;;;;;;5090595;28;20439;-59
2023/06/03 04:48:57;;;;;;;2.57;2.03;;;13.10;51.00;;;;;;5090648;28;20452;-58
2023/06/03 04:51:27;;;;;;;3.87;2.00;;;13.30;50.40;;;;;;5090140;28;21041;-57
2023/06/03 04:53:55;;;;;;;2.70;1.90;;;13.40;49.90;;;;;;5091534;28;20498;-58
2023/06/03 04:56:24;;;;;;;3.13;2.00;;;13.50;49.70;;;;;;5091554;28;20446;-58
2023/06/03 04:58:54;;;;;;;2.50;1.90;;;13.70;49.30;;;;;;5091386;28;20864;-59
2023/06/03 05:01:22;;;;;;;4.97;2.10;;;13.70;49.10;;;;;;5090756;28;20493;-59
2023/06/03 05:03:49;;;;;;;2.80;2.23;;;13.80;49.40;;;;;;5095100;28;20445;-59
2023/06/03 05:06:16;;;;;;;1.87;1.70;;;14.00;48.70;;;;;;5103491;28;20504;-58
2023/06/03 05:08:43;;;;;;;2.67;1.90;;;14.10;48.30;;;;;;5103263;28;20446;-58
2023/06/03 05:11:11;;;;;;;4.73;2.57;;;14.10;48.10;;;;;;5098572;28;20478;-57
2023/06/03 05:13:37;;;;;;;3.60;1.97;;;14.00;47.90;;;;;;5093518;28;20860;-57
2023/06/03 05:16:04;;;;;;;3.37;2.10;;;13.90;48.00;;;;;;5092484;28;20442;-57
2023/06/03 05:18:32;;;;;;;4.20;2.50;;;13.90;48.00;;;;;;5092538;28;20798;-58
2023/06/03 05:20:59;;;;;;;4.43;2.10;;;14.00;47.90;;;;;;5092130;28;20489;-58
2023/06/03 05:23:26;;;;;;;2.77;1.90;;;14.20;47.70;;;;;;5081230;28;20545;-58
2023/06/03 05:25:53;;;;;;;3.30;1.73;;;14.20;47.50;;;;;;5079595;28;20905;-58
2023/06/03 05:28:19;;;;;;;3.27;2.10;;;14.40;47.50;;;;;;5078592;28;20451;-57
2023/06/03 05:30:46;;;;;;;3.47;1.90;;;14.70;47.20;;;;;;5076643;28;20988;-57
2023/06/03 05:33:25;;;;;;;3.43;1.60;;;14.90;46.70;;;;;;5076109;28;20440;-58
2023/06/03 05:35:53;;;;;;;3.00;1.97;;;15.00;46.10;;;;;;5077493;28;20427;-58
2023/06/03 05:38:20;;;;;;;2.17;1.70;;;15.10;46.10;;;;;;5076867;28;20822;-58
2023/06/03 05:40:47;;;;;;;2.10;1.50;;;15.30;45.90;;;;;;5076262;28;20498;-56
2023/06/03 05:43:15;;;;;;;2.50;1.50;;;15.40;45.60;;;;;;5076681;28;20451;-58
2023/06/03 05:45:42;;;;;;;3.10;1.77;;;15.60;45.20;;;;;;5076300;28;20455;-57
2023/06/03 05:48:09;;;;;;;3.27;2.00;;;15.60;45.40;;;;;;5078152;28;20509;-58
2023/06/03 05:50:38;;;;;;;4.30;1.77;;;15.50;44.30;;;;;;5077021;28;20494;-59
2023/06/03 05:53:06;;;;;;;2.50;1.70;;;15.50;44.40;;;;;;5076272;28;20440;-58
2023/06/03 05:55:33;;;;;;;3.23;1.60;;;15.50;44.30;;;;;;5078183;28;20454;-59
2023/06/03 05:58:00;;;;;;;2.70;1.70;;;15.60;44.40;;;;;;5076509;28;20440;-57
2023/06/03 06:00:27;;;;;;;1.20;1.00;;;15.50;44.10;;;;;;5075564;28;20469;-59
2023/06/03 06:02:54;;;;;;;2.63;1.50;;;15.50;44.20;;;;;;5075857;28;20458;-58
2023/06/03 06:05:21;;;;;;;2.73;1.50;;;15.60;43.90;;;;;;5076459;28;20444;-58
2023/06/03 06:07:48;;;;;;;2.17;1.03;;;15.70;43.70;;;;;;5076169;28;20450;-58
2023/06/03 06:10:16;;;;;;;2.53;1.30;;;15.70;43.40;;;;;;5076361;28;21004;-58
2023/06/03 06:12:43;;;;;;;2.90;1.33;;;15.80;43.20;;;;;;5076112;28;20820;-57
2023/06/03 06:15:10;;;;;;;3.30;1.20;;;15.90;43.10;;;;;;5075889;28;20815;-58
2023/06/03 06:17:38;;;;;;;2.47;1.30;;;16.00;42.80;;;;;;5078087;28;20450;-58
2023/06/03 06:20:06;;;;;;;10.47;1.67;;;15.90;42.50;;;;;;5076580;28;20976;-58
2023/06/03 06:22:33;;;;;;;2.07;1.20;;;15.80;42.40;;;;;;5076083;28;20444;-58
2023/06/03 06:25:00;;;;;;;3.43;1.33;;;15.80;42.40;;;;;;5076343;28;20447;-58
2023/06/03 06:27:29;;;;;;;2.67;1.23;;;15.70;42.30;;;;;;5076747;28;20439;-58
2023/06/03 06:29:56;;;;;;;1.40;1.10;;;15.60;42.30;;;;;;5076639;28;20463;-59
2023/06/03 06:32:24;;;;;;;4.97;1.37;;;15.60;42.40;;;;;;5076118;28;20478;-58
2023/06/03 06:34:51;;;;;;;2.23;1.20;;;15.60;42.40;;;;;;5076906;28;20453;-57
2023/06/03 06:37:19;;;;;;;2.43;1.30;;;15.50;42.30;;;;;;5076071;28;20443;-58
2023/06/03 06:39:48;;;;;;;3.70;1.60;;;15.50;42.30;;;;;;5075446;28;20996;-58
2023/06/03 06:42:21;;;;;;;1.97;1.27;;;15.50;42.30;;;;;;5076142;28;20439;-59
2023/06/03 06:44:51;;;;;;;2.23;1.23;;;15.50;42.40;;;;;;5075052;28;20450;-58
2023/06/03 06:47:22;;;;;;;1.97;1.20;;;15.40;42.40;;;;;;5075388;28;20447;-58
2023/06/03 06:49:49;;;;;;;5.33;1.60;;;15.50;42.60;;;;;;5074681;28;21035;-58
2023/06/03 06:52:16;;;;;;;1.53;1.20;;;15.50;42.60;;;;;;5075102;28;20479;-59
2023/06/03 06:54:43;;;;;;;3.63;1.10;;;15.50;42.50;;;;;;5075175;28;20450;-57
2023/06/03 06:57:10;;;;;;;2.03;1.20;;;15.60;42.40;;;;;;5078937;28;20454;-59
2023/06/03 06:59:37;;;;;;;1.17;0.90;;;15.60;42.30;;;;;;5085209;28;20450;-58
2023/06/03 07:02:05;;;;;;;1.60;1.30;;;15.50;42.90;;;;;;5086470;28;20450;-58
2023/06/03 07:04:32;;;;;;;4.23;1.70;;;15.60;42.50;;;;;;5086894;28;20449;-58
2023/06/03 07:06:59;;;;;;;1.93;1.30;;;15.50;42.40;;;;;;5084437;28;20448;-58
2023/06/03 07:09:25;;;;;;;2.37;1.10;;;15.50;42.30;;;;;;5078819;28;20473;-58
2023/06/03 07:11:52;;;;;;;2.40;1.07;;;15.40;42.40;;;;;;5078526;28;20952;-56
2023/06/03 07:14:19;;;;;;;1.33;1.20;;;15.50;42.30;;;;;;5078510;28;20538;-55
2023/06/03 07:16:49;;;;;;;1.33;0.93;;;15.50;42.10;;;;;;5077685;28;20446;-59
2023/06/03 07:19:17;;;;;;;4.10;1.40;;;15.60;41.80;;;;;;5077452;28;20546;-58
2023/06/03 07:21:44;;;;;;;2.53;1.37;;;15.70;41.70;;;;;;5076534;28;20438;-58
2023/06/03 07:24:12;;;;;;;1.93;1.10;;;15.80;41.50;;;;;;5075737;28;20443;-59
2023/06/03 07:26:40;;;;;;;1.57;1.00;;;16.00;41.30;;;;;;5074710;28;20443;-58
2023/06/03 07:29:07;;;;;;;1.77;1.23;;;16.10;41.20;;;;;;5074193;28;20443;-59
2023/06/03 07:31:36;;;;;;;1.23;0.90;;;16.10;41.20;;;;;;5074590;28;20482;-57
2023/06/03 07:34:04;;;;;;;3.13;1.53;;;16.20;41.00;;;;;;5074806;28;20491;-58
2023/06/03 07:36:33;;;;;;;1.30;0.97;;;16.20;40.60;;;;;;5074935;28;21007;-57
2023/06/03 07:39:04;;;;;;;2.77;1.20;;;16.20;40.30;;;;;;5075051;28;20447;-58
2023/06/03 07:41:51;;;;;;;3.47;1.17;;;16.30;40.20;;;;;;5074450;28;20491;-57
2023/06/03 07:44:28;;;;;;;2.50;1.00;;;16.40;39.70;;;;;;5075511;28;20427;-57
2023/06/03 07:46:57;;;;;;;1.70;1.00;;;16.50;39.30;;;;;;5075520;28;20434;-58
2023/06/03 07:49:24;;;;;;;1.33;1.10;;;16.50;39.20;;;;;;5075592;28;20469;-58
2023/06/03 07:51:53;;;;;;;1.70;0.80;;;16.60;39.00;;;;;;5074394;28;20479;-57
2023/06/03 07:54:20;;;;;;;1.97;1.03;;;16.60;38.70;;;;;;5075635;28;20447;-59
2023/06/03 07:56:48;;;;;;;1.70;0.93;;;16.60;38.50;;;;;;5075571;28;20447;-58
2023/06/03 07:59:17;;;;;;;3.30;1.10;;;16.60;38.60;;;;;;5075480;28;20443;-59
2023/06/03 08:01:44;;;;;;;1.67;1.10;;;16.70;38.60;;;;;;5077421;28;20447;-58
2023/06/03 08:04:30;;;;;;;1.27;1.00;;;16.70;38.40;;;;;;5075711;28;20913;-58
2023/06/03 08:07:00;;;;;;;2.87;1.10;;;16.70;38.30;;;;;;5074860;28;20433;-59
2023/06/03 08:09:29;;;;;;;1.90;1.00;;;16.70;38.20;;;;;;5074012;28;20474;-59
2023/06/03 08:11:56;;;;;;;3.77;1.13;;;16.80;38.10;;;;;;5074964;28;20467;-58
2023/06/03 08:14:24;;;;;;;1.07;0.63;;;16.90;38.10;;;;;;5074372;28;20447;-58
2023/06/03 08:16:52;;;;;;;3.67;1.10;;;17.10;37.80;;;;;;5074753;28;20785;-58
2023/06/03 08:19:19;;;;;;;1.67;1.23;;;17.20;37.50;;;;;;5074892;28;20447;-58
2023/06/03 08:21:46;;;;;;;1.73;1.20;;;17.40;37.30;;;;;;5078799;28;20439;-59
2023/06/03 08:24:14;;;;;;;1.33;1.07;;;17.50;36.90;;;;;;5081983;28;20466;-58
2023/06/03 08:26:41;;;;;;;2.30;1.00;;;17.60;36.60;;;;;;5075509;28;20941;-58
2023/06/03 08:29:08;;;;;;;5.30;1.17;;;17.70;36.40;;;;;;5074063;28;20450;-59
2023/06/03 08:31:34;;;;;;;2.90;1.20;;;17.80;36.00;;;;;;5075567;28;20479;-58
2023/06/03 08:34:02;;;;;;;2.40;0.90;;;17.80;35.70;;;;;;5074797;28;20451;-59
2023/06/03 08:36:29;;;;;;;1.60;1.00;;;17.80;35.50;;;;;;5074698;28;20497;-58
2023/06/03 08:38:56;;;;;;;1.17;0.80;;;17.80;35.00;;;;;;5074804;28;20458;-59
2023/06/03 08:41:26;;;;;;;1.20;1.00;;;17.70;34.80;;;;;;5074313;28;20463;-59
2023/06/03 08:44:02;;;;;;;1.00;0.73;;;17.80;34.60;;;;;;5075535;28;20806;-58
2023/06/03 08:46:35;;;;;;;1.83;1.00;;;17.80;34.30;;;;;;5074436;28;20490;-57
2023/06/03 08:49:04;;;;;;;3.00;0.90;;;17.90;34.10;;;;;;5073885;28;20427;-60
2023/06/03 08:51:37;;;;;;;1.67;0.83;;;17.90;33.80;;;;;;5082478;22;20491;-61
2023/06/03 08:54:11;;;;;;;1.77;0.90;;;17.90;33.50;;;;;;5052688;28;20429;-58
2023/06/03 08:56:42;;;;;;;1.60;0.97;;;18.00;33.50;;;;;;5054104;28;20482;-60
2023/06/03 08:59:12;;;;;;;3.13;1.37;;;18.10;33.60;;;;;;5057158;28;20448;-60
2023/06/03 09:01:39;;;;;;;1.53;0.90;;;18.30;33.60;;;;;;5055730;28;20464;-60
2023/06/03 09:04:06;;;;;;;1.10;0.80;;;18.40;33.20;;;;;;5055801;28;20451;-59
2023/06/03 09:06:33;;;;;;;1.00;0.70;;;18.50;32.90;;;;;;5056881;28;20466;-60
2023/06/03 09:09:01;;;;;;;3.00;0.80;;;18.40;32.80;;;;;;5055896;28;20942;-60
2023/06/03 09:11:30;;;;;;;3.07;1.00;;;18.40;32.60;;;;;;5055506;28;20858;-60
2023/06/03 09:14:00;;;;;;;2.00;1.17;;;18.50;32.50;;;;;;5056523;28;20447;-61
2023/06/03 09:16:28;;;;;;;1.60;1.10;;;18.60;32.10;;;;;;5056043;28;20444;-59
2023/06/03 09:18:55;;;;;;;2.20;0.73;;;18.70;31.70;;;;;;5055916;28;20444;-60
2023/06/03 09:21:23;;;;;;;1.10;0.83;;;18.80;31.60;;;;;;5056057;28;20468;-60
2023/06/03 09:23:51;;;;;;;3.13;0.80;;;19.00;31.30;;;;;;5055978;28;20458;-60
2023/06/03 09:26:18;;;;;;;1.70;0.80;;;19.10;31.00;;;;;;5063151;28;20456;-61
2023/06/03 09:28:46;;;;;;;1.40;0.70;;;19.20;30.80;;;;;;5055830;28;20444;-61
2023/06/03 09:31:14;;;;;;;1.20;0.83;;;19.20;30.50;;;;;;5055659;28;20460;-60
2023/06/03 09:33:42;;;;;;;1.77;1.10;;;19.20;30.30;;;;;;5055696;28;20452;-60
2023/06/03 09:36:10;;;;;;;1.83;1.00;;;19.30;30.30;;;;;;5055295;28;20439;-61
2023/06/03 09:38:50;;;;;;;2.50;1.20;;;19.30;30.30;;;;;;5055086;28;20515;-59
2023/06/03 09:41:19;;;;;;;0.87;0.67;;;19.20;30.30;;;;;;5055270;28;20475;-60
2023/06/03 09:43:56;;;;;;;1.13;0.90;;;19.20;30.40;;;;;;5054771;28;20454;-60
2023/06/03 09:46:26;;;;;;;1.30;0.90;;;19.30;30.20;;;;;;5055023;28;20922;-59
2023/06/03 09:48:53;;;;;;;1.20;0.90;;;19.30;29.80;;;;;;5055279;28;20448;-61
2023/06/03 09:51:19;;;;;;;1.30;1.10;;;19.20;29.70;;;;;;5054943;28;20807;-60
2023/06/03 09:53:46;;;;;;;1.50;1.00;;;19.20;29.90;;;;;;5055444;28;20866;-60
2023/06/03 09:56:23;;;;;;;2.27;0.93;;;19.30;30.50;;;;;;5056538;28;20502;-60
2023/06/03 09:58:52;;;;;;;1.40;0.80;;;19.30;29.70;;;;;;5055429;28;20436;-60
2023/06/03 10:01:31;;;;;;;1.30;0.80;;;19.30;29.70;;;;;;5055141;28;20514;-59
2023/06/03 10:03:59;;;;;;;1.73;1.00;;;19.20;30.00;;;;;;5055702;28;20435;-60
2023/06/03 10:06:26;;;;;;;1.77;0.80;;;19.20;29.70;;;;;;5055200;28;20487;-60
2023/06/03 10:08:53;;;;;;;2.40;0.90;;;19.30;29.60;;;;;;5055944;28;20444;-61
2023/06/03 10:11:20;;;;;;;1.67;0.90;;;19.40;29.50;;;;;;5055167;28;20468;-60
2023/06/03 10:13:47;;;;;;;1.60;0.83;;;19.40;29.10;;;;;;5054926;28;20479;-60
2023/06/03 10:16:14;;;;;;;1.10;0.90;;;19.40;29.00;;;;;;5054741;28;20450;-60
2023/06/03 10:18:43;;;;;;;2.00;0.90;;;19.40;28.60;;;;;;5054877;28;20443;-60
2023/06/03 10:21:12;;;;;;;1.00;0.77;;;19.30;28.80;;;;;;5054775;28;20479;-59
2023/06/03 10:23:40;;;;;;;0.97;0.87;;;19.30;28.80;;;;;;5054580;28;20436;-59
2023/06/03 10:26:07;;;;;;;2.60;0.93;;;19.40;28.70;;;;;;5055301;28;20447;-60
2023/06/03 10:28:35;;;;;;;1.90;0.83;;;19.60;28.60;;;;;;5055423;28;20466;-60
2023/06/03 10:31:04;;;;;;;5.30;1.20;;;19.60;28.50;;;;;;5054705;28;20499;-60
2023/06/03 10:33:32;;;;;;;1.80;1.00;;;19.80;28.50;;;;;;5054684;28;20479;-61
2023/06/03 10:36:03;;;;;;;1.27;1.10;;;19.80;28.30;;;;;;5055015;28;20523;-61
2023/06/03 10:38:31;;;;;;;1.17;0.80;;;19.80;28.30;;;;;;5054393;28;20432;-61
2023/06/03 10:40:59;;;;;;;1.73;0.93;;;19.80;28.20;;;;;;5054511;28;20471;-61
2023/06/03 10:43:27;;;;;;;1.27;0.70;;;19.80;28.00;;;;;;5054626;28;20440;-60
2023/06/03 10:45:57;;;;;;;1.57;0.90;;;19.80;27.90;;;;;;5054495;28;20447;-60
2023/06/03 10:48:26;;;;;;;1.17;0.90;;;19.80;27.90;;;;;;5054832;28;20455;-63
2023/06/03 10:51:04;;;;;;;1.50;1.17;;;19.90;27.80;;;;;;5055711;28;20555;-60
2023/06/03 10:53:55;;;;;;;2.67;1.33;;;20.00;27.70;;;;;;5053919;28;20468;-60
2023/06/03 10:56:29;;;;;;;1.60;1.03;;;20.20;27.60;;;;;;5056524;28;20807;-61
2023/06/03 10:59:02;;;;;;;4.13;1.10;;;20.20;27.30;;;;;;5055792;28;20810;-60
2023/06/03 11:01:56;;;;;;;2.57;1.10;;;20.20;27.40;;;;;;5055409;28;20460;-62
2023/06/03 11:04:23;;;;;;;1.83;1.33;;;20.30;27.50;;;;;;5056820;28;20428;-60
2023/06/03 11:06:52;;;;;;;1.23;0.77;;;20.20;27.40;;;;;;5060898;28;20444;-63
2023/06/03 11:09:34;;;;;;;4.40;0.80;;;20.20;27.50;;;;;;5056025;28;20455;-61
2023/06/03 11:12:09;;;;;;;1.50;0.90;;;20.40;27.70;;;;;;5053801;28;20484;-59
2023/06/03 11:15:00;;;;;;;1.33;0.87;;;20.50;27.60;;;;;;5053751;28;20808;-60
2023/06/03 11:17:27;;;;;;;1.60;1.13;;;20.50;27.60;;;;;;5034377;28;20459;-62
2023/06/03 11:19:56;;;;;;;1.10;0.80;;;20.60;27.60;;;;;;5053314;28;20443;-59
2023/06/03 11:22:42;;;;;;;1.43;0.83;;;20.60;27.60;;;;;;5053694;28;20448;-59
2023/06/03 11:25:26;;;;;;;1.40;1.07;;;20.70;27.80;;;;;;5053577;28;20483;-60
2023/06/03 11:27:53;;;;;;;2.80;1.20;;;20.80;27.50;;;;;;5055141;28;20427;-60
2023/06/03 11:30:20;;;;;;;2.10;0.90;;;20.70;27.20;;;;;;5053588;28;20460;-59
2023/06/03 11:33:11;;;;;;;1.10;1.00;;;20.60;27.00;;;;;;5053946;28;20866;-61
2023/06/03 11:35:38;;;;;;;1.53;1.23;;;20.50;27.10;;;;;;5054322;28;20465;-63
2023/06/03 11:38:05;;;;;;;2.07;1.10;;;20.50;27.10;;;;;;5053759;28;20444;-61
2023/06/03 11:40:45;;;;;;;4.40;1.50;;;20.70;27.00;;;;;;5052805;28;20476;-60
2023/06/03 11:43:12;;;;;;;1.77;1.30;;;20.80;26.70;;;;;;5053096;28;20432;-60
2023/06/03 11:45:39;;;;;;;1.30;1.20;;;20.90;26.70;;;;;;5052967;28;20941;-60
2023/06/03 11:48:09;;;;;;;2.23;1.10;;;20.90;26.80;;;;;;5053329;28;20445;-61
2023/06/03 11:50:47;;;;;;;1.03;0.70;;;21.00;26.50;;;;;;5052930;28;20491;-61
2023/06/03 11:53:31;;;;;;;1.80;0.93;;;21.10;26.10;;;;;;5052547;28;20464;-58
2023/06/03 11:56:05;;;;;;;1.43;1.00;;;21.30;25.80;;;;;;5053361;28;20466;-60
2023/06/03 11:58:33;;;;;;;1.20;0.90;;;21.60;25.30;;;;;;5052765;28;20456;-59
2023/06/03 12:01:07;;;;;;;3.87;2.07;;;22.00;25.20;;;;;;5052557;28;20855;-60
2023/06/03 12:03:35;;;;;;;1.60;1.07;;;22.60;25.10;;;;;;5053403;28;20825;-61
2023/06/03 12:06:05;;;;;;;1.37;0.90;;;23.20;25.00;;;;;;5052877;28;20483;-59
2023/06/03 12:08:48;;;;;;;1.40;1.10;;;23.50;24.40;;;;;;5052772;28;20444;-60
2023/06/03 12:11:28;;;;;;;1.83;1.20;;;23.70;24.00;;;;;;5052520;28;20469;-60
2023/06/03 12:13:55;;;;;;;1.67;0.90;;;23.70;23.90;;;;;;5052003;28;21021;-60
2023/06/03 12:16:32;;;;;;;1.53;1.10;;;23.80;23.70;;;;;;5052937;28;20442;-61
2023/06/03 12:19:00;;;;;;;3.23;1.20;;;23.80;23.30;;;;;;5052917;28;20520;-62
2023/06/03 12:21:29;;;;;;;1.30;0.90;;;24.00;23.20;;;;;;5052522;28;20470;-60
2023/06/03 12:23:57;;;;;;;1.10;0.90;;;24.30;23.00;;;;;;5053631;28;20438;-61
2023/06/03 12:26:24;;;;;;;2.60;1.33;;;24.50;22.80;;;;;;5053100;28;20447;-61
2023/06/03 12:28:51;;;;;;;1.80;1.00;;;24.70;22.60;;;;;;5052919;28;20851;-60
2023/06/03 12:31:18;;;;;;;5.57;3.93;;;24.70;22.80;;;;;;5052231;28;21015;-60
2023/06/03 12:33:46;;;;;;;2.90;1.27;;;24.80;23.00;;;;;;5056855;28;20894;-60
2023/06/03 12:36:14;;;;;;;3.20;2.33;;;24.80;23.00;;;;;;5057119;28;20537;-61
2023/06/03 12:38:56;;;;;;;3.70;1.20;;;24.60;23.10;;;;;;5056938;28;20451;-61
2023/06/03 12:41:23;;;;;;;2.50;1.00;;;24.30;23.00;;;;;;5057086;28;20565;-61
2023/06/03 12:43:58;;;;;;;1.30;0.90;;;23.90;23.20;;;;;;5057247;28;20436;-61
2023/06/03 12:46:25;;;;;;;4.87;1.17;;;23.40;22.90;;;;;;5058323;28;20426;-61
2023/06/03 12:48:52;;;;;;;1.00;0.80;;;23.00;23.20;;;;;;5064864;28;20466;-60
2023/06/03 12:51:24;;;;;;;1.30;1.00;;;22.70;23.80;;;;;;5056785;28;21011;-59
2023/06/03 12:53:50;;;;;;;1.50;0.90;;;22.40;24.10;;;;;;5056677;28;20525;-62
2023/06/03 12:56:18;;;;;;;1.10;1.00;;;22.30;24.40;;;;;;5056464;28;20474;-60
2023/06/03 12:58:45;;;;;;;1.97;1.20;;;22.30;24.60;;;;;;5056315;28;20450;-60
2023/06/03 13:01:12;;;;;;;1.40;1.00;;;22.30;24.50;;;;;;5056203;28;20842;-61
2023/06/03 13:03:39;;;;;;;2.60;1.60;;;22.30;24.50;;;;;;5056287;28;20795;-60